sensor_id;sensor_type;location;lat;lon;timestamp;P1;durP1;ratioP1;P2;durP2;ratioP2
36547;SDS011;22551;52.206;4.856;2024-03-08T00:03:29;33.15;;;13.73;;
36547;SDS011;22551;52.206;4.856;2024-03-08T00:09:17;27.50;;;11.15;;
36547;SDS011;22551;52.206;4.856;2024-03-08T00:14:50;32.70;;;12.85;;
36547;SDS011;22551;52.206;4.856;2024-03-08T00:26:13;30.90;;;13.35;;
36547;SDS011;22551;52.206;4.856;2024-03-08T00:37:30;34.13;;;13.73;;
36547;SDS011;22551;52.206;4.856;2024-03-08T00:43:12;30.83;;;13.00;;
36547;SDS011;22551;52.206;4.856;2024-03-08T00:55:22;33.25;;;14.07;;
36547;SDS011;22551;52.206;4.856;2024-03-08T01:01:08;34.85;;;13.48;;
36547;SDS011;22551;52.206;4.856;2024-03-08T01:06:28;31.10;;;12.35;;
36547;SDS011;22551;52.206;4.856;2024-03-08T01:22:41;30.50;;;13.40;;
36547;SDS011;22551;52.206;4.856;2024-03-08T01:33:29;30.10;;;12.77;;
36547;SDS011;22551;52.206;4.856;2024-03-08T01:38:36;32.53;;;12.60;;
36547;SDS011;22551;52.206;4.856;2024-03-08T01:43:58;30.52;;;12.45;;
36547;SDS011;22551;52.206;4.856;2024-03-08T01:49:52;33.17;;;13.68;;
36547;SDS011;22551;52.206;4.856;2024-03-08T01:55:00;30.83;;;13.45;;
36547;SDS011;22551;52.206;4.856;2024-03-08T02:00:15;34.97;;;13.07;;
36547;SDS011;22551;52.206;4.856;2024-03-08T02:05:32;32.28;;;13.32;;
36547;SDS011;22551;52.206;4.856;2024-03-08T02:10:38;30.25;;;13.82;;
36547;SDS011;22551;52.206;4.856;2024-03-08T02:16:06;35.90;;;15.25;;
36547;SDS011;22551;52.206;4.856;2024-03-08T02:27:31;33.30;;;13.75;;
36547;SDS011;22551;52.206;4.856;2024-03-08T02:32:43;31.67;;;12.85;;
36547;SDS011;22551;52.206;4.856;2024-03-08T02:38:08;31.92;;;13.85;;
36547;SDS011;22551;52.206;4.856;2024-03-08T02:43:41;30.85;;;12.65;;
36547;SDS011;22551;52.206;4.856;2024-03-08T02:49:14;32.90;;;13.43;;
36547;SDS011;22551;52.206;4.856;2024-03-08T02:54:29;30.80;;;14.25;;
36547;SDS011;22551;52.206;4.856;2024-03-08T02:59:48;32.50;;;13.82;;
36547;SDS011;22551;52.206;4.856;2024-03-08T03:04:53;33.05;;;12.93;;
36547;SDS011;22551;52.206;4.856;2024-03-08T03:10:25;29.98;;;13.20;;
36547;SDS011;22551;52.206;4.856;2024-03-08T03:16:34;33.92;;;14.23;;
36547;SDS011;22551;52.206;4.856;2024-03-08T03:21:40;35.50;;;15.00;;
36547;SDS011;22551;52.206;4.856;2024-03-08T03:27:11;32.75;;;13.73;;
36547;SDS011;22551;52.206;4.856;2024-03-08T03:32:32;34.20;;;14.38;;
36547;SDS011;22551;52.206;4.856;2024-03-08T03:38:08;33.78;;;14.27;;
36547;SDS011;22551;52.206;4.856;2024-03-08T03:44:15;31.73;;;12.48;;
36547;SDS011;22551;52.206;4.856;2024-03-08T03:50:20;35.03;;;14.00;;
36547;SDS011;22551;52.206;4.856;2024-03-08T03:55:25;33.15;;;14.70;;
36547;SDS011;22551;52.206;4.856;2024-03-08T04:00:32;36.72;;;14.35;;
36547;SDS011;22551;52.206;4.856;2024-03-08T04:05:42;33.35;;;13.50;;
36547;SDS011;22551;52.206;4.856;2024-03-08T04:10:54;41.72;;;15.02;;
36547;SDS011;22551;52.206;4.856;2024-03-08T04:16:01;35.00;;;14.82;;
36547;SDS011;22551;52.206;4.856;2024-03-08T04:21:15;31.45;;;14.45;;
36547;SDS011;22551;52.206;4.856;2024-03-08T04:26:19;31.92;;;14.27;;
36547;SDS011;22551;52.206;4.856;2024-03-08T04:31:22;32.28;;;13.55;;
36547;SDS011;22551;52.206;4.856;2024-03-08T04:36:29;32.25;;;14.48;;
36547;SDS011;22551;52.206;4.856;2024-03-08T04:41:34;33.85;;;14.55;;
36547;SDS011;22551;52.206;4.856;2024-03-08T04:46:59;35.10;;;13.65;;
36547;SDS011;22551;52.206;4.856;2024-03-08T04:52:20;31.63;;;14.43;;
36547;SDS011;22551;52.206;4.856;2024-03-08T05:02:32;36.70;;;14.40;;
36547;SDS011;22551;52.206;4.856;2024-03-08T05:07:34;38.40;;;14.88;;
36547;SDS011;22551;52.206;4.856;2024-03-08T05:12:37;38.47;;;15.30;;
36547;SDS011;22551;52.206;4.856;2024-03-08T05:17:41;33.05;;;13.50;;
36547;SDS011;22551;52.206;4.856;2024-03-08T05:22:46;35.85;;;14.20;;
36547;SDS011;22551;52.206;4.856;2024-03-08T05:27:48;30.67;;;13.68;;
36547;SDS011;22551;52.206;4.856;2024-03-08T05:32:52;34.03;;;14.75;;
36547;SDS011;22551;52.206;4.856;2024-03-08T05:37:54;35.53;;;14.30;;
36547;SDS011;22551;52.206;4.856;2024-03-08T05:42:59;28.40;;;13.70;;
36547;SDS011;22551;52.206;4.856;2024-03-08T05:48:03;33.42;;;14.07;;
36547;SDS011;22551;52.206;4.856;2024-03-08T05:53:12;31.65;;;14.27;;
36547;SDS011;22551;52.206;4.856;2024-03-08T05:58:14;35.38;;;15.13;;
36547;SDS011;22551;52.206;4.856;2024-03-08T06:08:59;29.92;;;14.05;;
36547;SDS011;22551;52.206;4.856;2024-03-08T06:14:08;35.03;;;15.13;;
36547;SDS011;22551;52.206;4.856;2024-03-08T06:19:12;33.40;;;14.60;;
36547;SDS011;22551;52.206;4.856;2024-03-08T06:24:20;34.55;;;15.23;;
36547;SDS011;22551;52.206;4.856;2024-03-08T06:29:22;32.95;;;13.98;;
36547;SDS011;22551;52.206;4.856;2024-03-08T06:34:27;43.78;;;16.30;;
36547;SDS011;22551;52.206;4.856;2024-03-08T06:39:32;34.22;;;14.43;;
36547;SDS011;22551;52.206;4.856;2024-03-08T06:44:39;29.17;;;13.40;;
36547;SDS011;22551;52.206;4.856;2024-03-08T06:49:52;30.52;;;14.55;;
36547;SDS011;22551;52.206;4.856;2024-03-08T06:55:04;33.10;;;15.00;;
36547;SDS011;22551;52.206;4.856;2024-03-08T07:00:12;33.15;;;15.05;;
36547;SDS011;22551;52.206;4.856;2024-03-08T07:05:20;32.67;;;14.02;;
36547;SDS011;22551;52.206;4.856;2024-03-08T07:10:25;34.05;;;15.80;;
36547;SDS011;22551;52.206;4.856;2024-03-08T07:15:28;35.30;;;15.27;;
36547;SDS011;22551;52.206;4.856;2024-03-08T07:20:32;32.17;;;15.70;;
36547;SDS011;22551;52.206;4.856;2024-03-08T07:25:35;35.22;;;14.80;;
36547;SDS011;22551;52.206;4.856;2024-03-08T07:30:39;31.15;;;13.23;;
36547;SDS011;22551;52.206;4.856;2024-03-08T07:36:02;30.17;;;14.68;;
36547;SDS011;22551;52.206;4.856;2024-03-08T07:41:05;29.73;;;14.25;;
36547;SDS011;22551;52.206;4.856;2024-03-08T07:46:07;34.63;;;14.88;;
36547;SDS011;22551;52.206;4.856;2024-03-08T07:51:12;35.30;;;14.52;;
36547;SDS011;22551;52.206;4.856;2024-03-08T07:56:17;36.92;;;16.05;;
36547;SDS011;22551;52.206;4.856;2024-03-08T08:01:21;32.72;;;15.35;;
36547;SDS011;22551;52.206;4.856;2024-03-08T08:06:25;35.25;;;14.63;;
36547;SDS011;22551;52.206;4.856;2024-03-08T08:11:30;34.20;;;15.52;;
36547;SDS011;22551;52.206;4.856;2024-03-08T08:16:32;35.60;;;15.18;;
36547;SDS011;22551;52.206;4.856;2024-03-08T08:21:36;34.90;;;15.10;;
36547;SDS011;22551;52.206;4.856;2024-03-08T08:26:38;33.88;;;14.88;;
36547;SDS011;22551;52.206;4.856;2024-03-08T08:31:40;34.35;;;13.80;;
36547;SDS011;22551;52.206;4.856;2024-03-08T08:36:44;27.83;;;14.25;;
36547;SDS011;22551;52.206;4.856;2024-03-08T08:41:47;32.83;;;15.20;;
36547;SDS011;22551;52.206;4.856;2024-03-08T08:46:56;27.60;;;12.77;;
36547;SDS011;22551;52.206;4.856;2024-03-08T08:52:00;33.00;;;14.13;;
36547;SDS011;22551;52.206;4.856;2024-03-08T08:57:03;27.80;;;14.80;;
36547;SDS011;22551;52.206;4.856;2024-03-08T09:02:07;35.73;;;14.50;;
36547;SDS011;22551;52.206;4.856;2024-03-08T09:07:11;31.75;;;14.77;;
36547;SDS011;22551;52.206;4.856;2024-03-08T09:12:13;30.85;;;14.93;;
36547;SDS011;22551;52.206;4.856;2024-03-08T09:17:16;30.58;;;14.57;;
36547;SDS011;22551;52.206;4.856;2024-03-08T09:22:22;33.70;;;15.40;;
36547;SDS011;22551;52.206;4.856;2024-03-08T09:27:25;29.35;;;14.38;;
36547;SDS011;22551;52.206;4.856;2024-03-08T09:32:27;31.13;;;14.95;;
36547;SDS011;22551;52.206;4.856;2024-03-08T09:37:31;30.65;;;13.23;;
36547;SDS011;22551;52.206;4.856;2024-03-08T09:42:33;29.70;;;14.38;;
36547;SDS011;22551;52.206;4.856;2024-03-08T09:47:37;28.92;;;13.05;;
36547;SDS011;22551;52.206;4.856;2024-03-08T09:52:43;24.50;;;12.32;;
36547;SDS011;22551;52.206;4.856;2024-03-08T09:57:49;27.08;;;13.75;;
36547;SDS011;22551;52.206;4.856;2024-03-08T10:03:10;27.85;;;12.90;;
36547;SDS011;22551;52.206;4.856;2024-03-08T10:08:16;28.45;;;12.80;;
36547;SDS011;22551;52.206;4.856;2024-03-08T10:13:18;27.90;;;13.32;;
36547;SDS011;22551;52.206;4.856;2024-03-08T10:18:20;27.80;;;12.88;;
36547;SDS011;22551;52.206;4.856;2024-03-08T10:23:25;31.35;;;14.18;;
36547;SDS011;22551;52.206;4.856;2024-03-08T10:28:36;26.70;;;12.55;;
36547;SDS011;22551;52.206;4.856;2024-03-08T10:33:42;28.80;;;13.63;;
36547;SDS011;22551;52.206;4.856;2024-03-08T10:38:51;27.55;;;12.23;;
36547;SDS011;22551;52.206;4.856;2024-03-08T10:44:08;25.50;;;12.90;;
36547;SDS011;22551;52.206;4.856;2024-03-08T10:49:19;29.98;;;12.82;;
36547;SDS011;22551;52.206;4.856;2024-03-08T11:00:41;26.45;;;12.80;;
36547;SDS011;22551;52.206;4.856;2024-03-08T11:05:44;24.55;;;12.20;;
36547;SDS011;22551;52.206;4.856;2024-03-08T11:10:50;25.30;;;11.55;;
36547;SDS011;22551;52.206;4.856;2024-03-08T11:15:56;19.48;;;10.38;;
36547;SDS011;22551;52.206;4.856;2024-03-08T11:20:58;26.88;;;11.35;;
36547;SDS011;22551;52.206;4.856;2024-03-08T11:26:17;21.92;;;11.15;;
36547;SDS011;22551;52.206;4.856;2024-03-08T11:31:25;20.20;;;11.35;;
36547;SDS011;22551;52.206;4.856;2024-03-08T11:36:28;23.48;;;10.50;;
36547;SDS011;22551;52.206;4.856;2024-03-08T11:41:32;31.38;;;14.00;;
36547;SDS011;22551;52.206;4.856;2024-03-08T11:46:35;24.25;;;10.77;;
36547;SDS011;22551;52.206;4.856;2024-03-08T11:51:46;20.67;;;10.13;;
36547;SDS011;22551;52.206;4.856;2024-03-08T11:56:53;23.83;;;10.57;;
36547;SDS011;22551;52.206;4.856;2024-03-08T12:02:01;22.77;;;10.40;;
36547;SDS011;22551;52.206;4.856;2024-03-08T12:07:04;22.33;;;10.15;;
36547;SDS011;22551;52.206;4.856;2024-03-08T12:12:09;21.50;;;10.18;;
36547;SDS011;22551;52.206;4.856;2024-03-08T12:17:13;21.50;;;9.98;;
36547;SDS011;22551;52.206;4.856;2024-03-08T12:22:15;19.27;;;9.85;;
36547;SDS011;22551;52.206;4.856;2024-03-08T12:27:18;18.25;;;9.80;;
36547;SDS011;22551;52.206;4.856;2024-03-08T12:32:21;19.13;;;9.52;;
36547;SDS011;22551;52.206;4.856;2024-03-08T12:37:25;18.75;;;9.25;;
36547;SDS011;22551;52.206;4.856;2024-03-08T12:42:27;17.95;;;9.70;;
36547;SDS011;22551;52.206;4.856;2024-03-08T12:47:33;18.80;;;8.93;;
36547;SDS011;22551;52.206;4.856;2024-03-08T12:52:42;26.50;;;10.98;;
36547;SDS011;22551;52.206;4.856;2024-03-08T12:57:44;20.58;;;9.35;;
36547;SDS011;22551;52.206;4.856;2024-03-08T13:02:48;16.65;;;9.00;;
36547;SDS011;22551;52.206;4.856;2024-03-08T13:07:53;19.30;;;8.73;;
36547;SDS011;22551;52.206;4.856;2024-03-08T13:12:58;17.67;;;9.15;;
36547;SDS011;22551;52.206;4.856;2024-03-08T13:18:02;14.98;;;8.07;;
36547;SDS011;22551;52.206;4.856;2024-03-08T13:23:05;14.32;;;8.43;;
36547;SDS011;22551;52.206;4.856;2024-03-08T13:28:08;19.60;;;9.10;;
36547;SDS011;22551;52.206;4.856;2024-03-08T13:33:12;18.10;;;9.50;;
36547;SDS011;22551;52.206;4.856;2024-03-08T13:38:14;23.60;;;9.60;;
36547;SDS011;22551;52.206;4.856;2024-03-08T13:43:20;20.33;;;9.57;;
36547;SDS011;22551;52.206;4.856;2024-03-08T13:48:23;17.60;;;8.80;;
36547;SDS011;22551;52.206;4.856;2024-03-08T13:53:25;16.90;;;8.80;;
36547;SDS011;22551;52.206;4.856;2024-03-08T13:58:30;16.95;;;9.43;;
36547;SDS011;22551;52.206;4.856;2024-03-08T14:03:33;15.82;;;8.60;;
36547;SDS011;22551;52.206;4.856;2024-03-08T14:08:36;19.00;;;9.77;;
36547;SDS011;22551;52.206;4.856;2024-03-08T14:13:42;18.92;;;9.63;;
36547;SDS011;22551;52.206;4.856;2024-03-08T14:18:47;20.10;;;9.68;;
36547;SDS011;22551;52.206;4.856;2024-03-08T14:23:58;16.80;;;9.52;;
36547;SDS011;22551;52.206;4.856;2024-03-08T14:29:10;17.05;;;9.00;;
36547;SDS011;22551;52.206;4.856;2024-03-08T14:34:15;20.97;;;10.33;;
36547;SDS011;22551;52.206;4.856;2024-03-08T14:39:17;19.40;;;10.00;;
36547;SDS011;22551;52.206;4.856;2024-03-08T14:44:23;18.60;;;9.37;;
36547;SDS011;22551;52.206;4.856;2024-03-08T14:49:27;21.17;;;10.37;;
36547;SDS011;22551;52.206;4.856;2024-03-08T14:54:30;17.85;;;10.30;;
36547;SDS011;22551;52.206;4.856;2024-03-08T14:59:32;19.42;;;9.88;;
36547;SDS011;22551;52.206;4.856;2024-03-08T15:04:35;20.73;;;10.45;;
36547;SDS011;22551;52.206;4.856;2024-03-08T15:09:41;18.45;;;9.40;;
36547;SDS011;22551;52.206;4.856;2024-03-08T15:14:43;19.63;;;9.90;;
36547;SDS011;22551;52.206;4.856;2024-03-08T15:19:49;24.88;;;10.68;;
36547;SDS011;22551;52.206;4.856;2024-03-08T15:25:24;18.42;;;10.00;;
36547;SDS011;22551;52.206;4.856;2024-03-08T15:30:34;19.30;;;10.05;;
36547;SDS011;22551;52.206;4.856;2024-03-08T15:36:09;20.02;;;10.00;;
36547;SDS011;22551;52.206;4.856;2024-03-08T15:41:17;25.75;;;12.07;;
36547;SDS011;22551;52.206;4.856;2024-03-08T15:46:20;26.30;;;11.30;;
36547;SDS011;22551;52.206;4.856;2024-03-08T15:51:26;21.88;;;10.23;;
36547;SDS011;22551;52.206;4.856;2024-03-08T16:01:52;19.30;;;10.30;;
36547;SDS011;22551;52.206;4.856;2024-03-08T16:07:01;21.27;;;9.70;;
36547;SDS011;22551;52.206;4.856;2024-03-08T16:12:16;23.17;;;9.45;;
36547;SDS011;22551;52.206;4.856;2024-03-08T16:17:36;19.08;;;9.90;;
36547;SDS011;22551;52.206;4.856;2024-03-08T16:22:45;18.77;;;10.55;;
36547;SDS011;22551;52.206;4.856;2024-03-08T16:27:52;20.20;;;9.82;;
36547;SDS011;22551;52.206;4.856;2024-03-08T16:32:56;21.73;;;9.85;;
36547;SDS011;22551;52.206;4.856;2024-03-08T16:38:08;23.55;;;10.07;;
36547;SDS011;22551;52.206;4.856;2024-03-08T16:43:17;23.35;;;11.00;;
36547;SDS011;22551;52.206;4.856;2024-03-08T16:48:26;21.30;;;9.90;;
36547;SDS011;22551;52.206;4.856;2024-03-08T16:53:40;20.90;;;10.10;;
36547;SDS011;22551;52.206;4.856;2024-03-08T16:58:50;24.65;;;10.38;;
36547;SDS011;22551;52.206;4.856;2024-03-08T17:04:25;19.10;;;10.02;;
36547;SDS011;22551;52.206;4.856;2024-03-08T17:09:47;19.05;;;9.80;;
36547;SDS011;22551;52.206;4.856;2024-03-08T17:15:01;20.00;;;9.43;;
36547;SDS011;22551;52.206;4.856;2024-03-08T17:20:15;23.55;;;10.18;;
36547;SDS011;22551;52.206;4.856;2024-03-08T17:30:38;22.80;;;11.13;;
36547;SDS011;22551;52.206;4.856;2024-03-08T17:41:20;39.75;;;16.65;;
36547;SDS011;22551;52.206;4.856;2024-03-08T17:46:28;32.13;;;15.10;;
36547;SDS011;22551;52.206;4.856;2024-03-08T17:51:36;22.67;;;11.35;;
36547;SDS011;22551;52.206;4.856;2024-03-08T17:57:09;21.52;;;10.65;;
36547;SDS011;22551;52.206;4.856;2024-03-08T18:02:26;27.35;;;11.10;;
36547;SDS011;22551;52.206;4.856;2024-03-08T18:07:37;23.25;;;10.45;;
36547;SDS011;22551;52.206;4.856;2024-03-08T18:12:47;26.35;;;11.73;;
36547;SDS011;22551;52.206;4.856;2024-03-08T18:17:58;22.13;;;10.43;;
36547;SDS011;22551;52.206;4.856;2024-03-08T18:23:03;23.00;;;11.45;;
36547;SDS011;22551;52.206;4.856;2024-03-08T18:28:13;23.42;;;12.07;;
36547;SDS011;22551;52.206;4.856;2024-03-08T18:33:28;29.60;;;13.20;;
36547;SDS011;22551;52.206;4.856;2024-03-08T18:38:35;26.55;;;11.70;;
36547;SDS011;22551;52.206;4.856;2024-03-08T18:43:47;26.38;;;12.45;;
36547;SDS011;22551;52.206;4.856;2024-03-08T18:48:59;23.50;;;10.93;;
36547;SDS011;22551;52.206;4.856;2024-03-08T18:54:18;23.73;;;11.45;;
36547;SDS011;22551;52.206;4.856;2024-03-08T18:59:31;23.05;;;11.10;;
36547;SDS011;22551;52.206;4.856;2024-03-08T19:04:40;21.65;;;10.77;;
36547;SDS011;22551;52.206;4.856;2024-03-08T19:09:46;22.65;;;10.95;;
36547;SDS011;22551;52.206;4.856;2024-03-08T19:15:02;23.92;;;11.88;;
36547;SDS011;22551;52.206;4.856;2024-03-08T19:20:11;24.77;;;11.82;;
36547;SDS011;22551;52.206;4.856;2024-03-08T19:30:48;30.75;;;13.95;;
36547;SDS011;22551;52.206;4.856;2024-03-08T19:36:00;25.90;;;12.43;;
36547;SDS011;22551;52.206;4.856;2024-03-08T19:41:21;28.20;;;12.48;;
36547;SDS011;22551;52.206;4.856;2024-03-08T19:46:30;28.75;;;12.98;;
36547;SDS011;22551;52.206;4.856;2024-03-08T19:51:40;27.35;;;12.55;;
36547;SDS011;22551;52.206;4.856;2024-03-08T19:56:54;22.45;;;11.25;;
36547;SDS011;22551;52.206;4.856;2024-03-08T20:02:31;23.48;;;11.90;;
36547;SDS011;22551;52.206;4.856;2024-03-08T20:07:56;27.23;;;12.38;;
36547;SDS011;22551;52.206;4.856;2024-03-08T20:13:14;27.40;;;12.52;;
36547;SDS011;22551;52.206;4.856;2024-03-08T20:24:48;27.70;;;12.00;;
36547;SDS011;22551;52.206;4.856;2024-03-08T20:29:51;28.45;;;12.40;;
36547;SDS011;22551;52.206;4.856;2024-03-08T20:35:01;28.85;;;13.02;;
36547;SDS011;22551;52.206;4.856;2024-03-08T20:45:40;27.90;;;13.13;;
36547;SDS011;22551;52.206;4.856;2024-03-08T20:50:55;34.35;;;13.55;;
36547;SDS011;22551;52.206;4.856;2024-03-08T20:56:09;32.05;;;13.68;;
36547;SDS011;22551;52.206;4.856;2024-03-08T21:01:18;29.05;;;13.05;;
36547;SDS011;22551;52.206;4.856;2024-03-08T21:06:31;31.60;;;14.18;;
36547;SDS011;22551;52.206;4.856;2024-03-08T21:11:39;29.80;;;14.13;;
36547;SDS011;22551;52.206;4.856;2024-03-08T21:16:54;29.33;;;13.40;;
36547;SDS011;22551;52.206;4.856;2024-03-08T21:22:09;28.50;;;12.88;;
36547;SDS011;22551;52.206;4.856;2024-03-08T21:28:02;33.50;;;12.75;;
36547;SDS011;22551;52.206;4.856;2024-03-08T21:33:27;30.00;;;12.77;;
36547;SDS011;22551;52.206;4.856;2024-03-08T21:38:45;30.75;;;12.93;;
36547;SDS011;22551;52.206;4.856;2024-03-08T21:44:05;31.17;;;13.98;;
36547;SDS011;22551;52.206;4.856;2024-03-08T21:49:19;28.50;;;14.07;;
36547;SDS011;22551;52.206;4.856;2024-03-08T21:54:39;28.23;;;13.05;;
36547;SDS011;22551;52.206;4.856;2024-03-08T22:00:06;35.63;;;14.38;;
36547;SDS011;22551;52.206;4.856;2024-03-08T22:11:03;31.58;;;13.88;;
36547;SDS011;22551;52.206;4.856;2024-03-08T22:16:32;29.17;;;13.65;;
36547;SDS011;22551;52.206;4.856;2024-03-08T22:21:46;33.60;;;13.88;;
36547;SDS011;22551;52.206;4.856;2024-03-08T22:27:11;31.08;;;14.52;;
36547;SDS011;22551;52.206;4.856;2024-03-08T22:32:23;34.33;;;14.73;;
36547;SDS011;22551;52.206;4.856;2024-03-08T22:37:40;35.20;;;15.00;;
36547;SDS011;22551;52.206;4.856;2024-03-08T22:42:54;33.10;;;14.30;;
36547;SDS011;22551;52.206;4.856;2024-03-08T22:48:11;30.80;;;14.73;;
36547;SDS011;22551;52.206;4.856;2024-03-08T22:53:22;29.80;;;14.05;;
36547;SDS011;22551;52.206;4.856;2024-03-08T23:04:00;37.45;;;13.73;;
36547;SDS011;22551;52.206;4.856;2024-03-08T23:09:17;33.33;;;14.73;;
36547;SDS011;22551;52.206;4.856;2024-03-08T23:20:56;34.85;;;14.38;;
36547;SDS011;22551;52.206;4.856;2024-03-08T23:32:30;31.27;;;13.80;;
36547;SDS011;22551;52.206;4.856;2024-03-08T23:38:07;32.88;;;14.23;;
36547;SDS011;22551;52.206;4.856;2024-03-08T23:43:42;34.88;;;14.93;;
36547;SDS011;22551;52.206;4.856;2024-03-08T23:54:07;36.28;;;13.95;;
